Time;durP1;ratioP1;P1;durP2;ratioP2;P2;SDS_P1;SDS_P2;PMS_P1;PMS_P2;Temp;Humidity;BMP_temperature;BMP_pressure;BME280_temperature;BME280_humidity;BME280_pressure;Samples;Min_cycle;Max_cycle;Signal;HPM_P1;HPM_P2
2023/11/14 00:01:07;;;;;;;10.45;3.40;;;16.60;68.30;;;;;;5133562;27;20203;-70
2023/11/14 00:03:32;;;;;;;8.10;3.10;;;16.60;68.30;;;;;;5133861;27;20541;-70
2023/11/14 00:06:02;;;;;;;12.73;2.88;;;16.60;68.30;;;;;;5132855;27;20255;-73
2023/11/14 00:08:27;;;;;;;11.43;2.90;;;16.60;68.30;;;;;;5133404;27;20196;-71
2023/11/14 00:10:54;;;;;;;8.32;2.72;;;16.60;68.20;;;;;;5133694;27;20172;-72
2023/11/14 00:13:19;;;;;;;9.15;2.88;;;16.60;68.50;;;;;;5132325;27;20251;-70
2023/11/14 00:15:45;;;;;;;6.93;3.38;;;16.60;68.30;;;;;;5133645;27;20268;-70
2023/11/14 00:18:11;;;;;;;7.82;3.15;;;16.60;68.50;;;;;;5133249;27;20192;-71
2023/11/14 00:20:36;;;;;;;9.02;2.55;;;16.50;68.30;;;;;;5132742;27;20538;-70
2023/11/14 00:23:02;;;;;;;7.25;2.70;;;16.50;68.50;;;;;;5133194;27;20259;-70
2023/11/14 00:25:27;;;;;;;8.65;3.20;;;16.50;68.50;;;;;;5133250;27;20230;-72
2023/11/14 00:27:53;;;;;;;9.07;3.10;;;16.50;68.60;;;;;;5132373;27;20176;-71
2023/11/14 00:30:18;;;;;;;6.30;2.45;;;16.50;68.60;;;;;;5133066;27;20176;-71
2023/11/14 00:32:44;;;;;;;8.60;3.03;;;16.50;68.60;;;;;;5133375;27;20176;-70
2023/11/14 00:35:10;;;;;;;7.45;2.80;;;16.50;68.30;;;;;;5132248;27;20584;-72
2023/11/14 00:37:36;;;;;;;9.57;2.80;;;16.50;68.70;;;;;;5133193;27;20196;-70
2023/11/14 00:40:03;;;;;;;9.75;2.78;;;16.50;68.70;;;;;;5132714;27;20172;-72
2023/11/14 00:42:29;;;;;;;9.25;2.40;;;16.50;68.80;;;;;;5132246;27;20650;-70
2023/11/14 00:44:55;;;;;;;6.70;2.13;;;16.50;68.70;;;;;;5133274;27;20180;-70
2023/11/14 00:47:20;;;;;;;11.45;3.58;;;16.40;68.40;;;;;;5132921;27;20176;-69
2023/11/14 00:49:46;;;;;;;8.90;3.22;;;16.50;68.80;;;;;;5132119;28;20323;-70
2023/11/14 00:52:12;;;;;;;11.63;3.20;;;16.40;68.60;;;;;;5132770;28;20169;-72
2023/11/14 00:54:38;;;;;;;11.65;2.63;;;16.40;68.70;;;;;;5136327;27;20259;-70
2023/11/14 00:57:04;;;;;;;8.02;3.10;;;16.40;68.80;;;;;;5136886;27;20267;-71
2023/11/14 00:59:29;;;;;;;6.72;2.70;;;16.40;68.80;;;;;;5137382;27;20309;-71
2023/11/14 01:01:58;;;;;;;7.82;2.80;;;16.50;69.00;;;;;;5136626;27;20244;-70
2023/11/14 01:04:24;;;;;;;10.95;2.70;;;16.40;68.60;;;;;;5137328;27;20305;-71
2023/11/14 01:06:49;;;;;;;9.18;3.65;;;16.40;68.70;;;;;;5137013;27;20215;-72
2023/11/14 01:09:15;;;;;;;9.10;2.78;;;16.40;68.80;;;;;;5135964;27;20208;-72
2023/11/14 01:11:40;;;;;;;6.30;2.58;;;16.40;68.90;;;;;;5136886;27;20255;-72
2023/11/14 01:14:06;;;;;;;9.82;3.13;;;16.40;68.60;;;;;;5136829;27;20257;-71
2023/11/14 01:16:32;;;;;;;6.03;2.83;;;16.40;68.70;;;;;;5136342;27;20516;-70
2023/11/14 01:18:57;;;;;;;7.10;2.47;;;16.40;68.80;;;;;;5136806;27;20305;-70
2023/11/14 01:21:23;;;;;;;7.78;2.90;;;16.40;69.00;;;;;;5136848;27;20271;-70
2023/11/14 01:23:49;;;;;;;9.73;3.05;;;16.40;68.70;;;;;;5136087;27;20168;-71
2023/11/14 01:26:14;;;;;;;7.43;3.10;;;16.40;68.60;;;;;;5136245;27;20184;-69
2023/11/14 01:28:41;;;;;;;9.27;2.90;;;16.40;69.00;;;;;;5136620;27;20386;-71
2023/11/14 01:31:07;;;;;;;8.00;2.53;;;16.40;69.90;;;;;;5135799;27;20165;-69
2023/11/14 01:33:32;;;;;;;6.22;2.55;;;16.30;68.80;;;;;;5136638;27;20263;-70
2023/11/14 01:35:58;;;;;;;8.80;3.10;;;16.30;68.50;;;;;;5136469;27;20225;-72
2023/11/14 01:38:24;;;;;;;9.38;3.33;;;16.30;68.70;;;;;;5135839;27;20165;-70
2023/11/14 01:40:50;;;;;;;7.63;2.88;;;16.30;68.70;;;;;;5136745;27;20180;-72
2023/11/14 01:43:16;;;;;;;8.60;3.00;;;16.40;68.70;;;;;;5136276;27;20184;-70
2023/11/14 01:45:41;;;;;;;11.50;2.83;;;16.30;68.80;;;;;;5135607;27;20180;-70
2023/11/14 01:48:06;;;;;;;10.63;3.47;;;16.30;68.70;;;;;;5135873;27;20233;-70
2023/11/14 01:50:33;;;;;;;9.88;3.17;;;16.30;69.10;;;;;;5136353;27;20179;-70
2023/11/14 01:52:58;;;;;;;10.90;3.72;;;16.30;69.10;;;;;;5135213;27;20168;-71
2023/11/14 01:55:25;;;;;;;10.75;3.63;;;16.30;68.30;;;;;;5118096;27;20233;-70
2023/11/14 01:57:52;;;;;;;9.48;3.00;;;16.30;68.40;;;;;;5136336;27;20245;-70
2023/11/14 02:00:17;;;;;;;10.98;2.88;;;16.30;68.80;;;;;;5135303;27;20288;-71
2023/11/14 02:02:43;;;;;;;7.32;3.17;;;16.30;68.40;;;;;;5135998;27;20622;-70
2023/11/14 02:05:09;;;;;;;8.02;2.90;;;16.30;68.40;;;;;;5134235;27;20176;-72
2023/11/14 02:07:35;;;;;;;9.60;3.35;;;16.30;68.10;;;;;;5117699;27;20259;-73
2023/11/14 02:10:00;;;;;;;14.77;4.07;;;16.30;68.30;;;;;;5135731;27;20295;-72
2023/11/14 02:12:26;;;;;;;10.57;3.17;;;16.30;68.30;;;;;;5135234;27;20255;-70
2023/11/14 02:14:52;;;;;;;10.32;3.40;;;16.30;68.20;;;;;;5100702;27;20173;-70
2023/11/14 02:17:17;;;;;;;11.55;3.55;;;16.30;68.20;;;;;;5135337;27;20236;-70
2023/11/14 02:19:43;;;;;;;9.70;2.95;;;16.30;68.20;;;;;;5135031;27;20168;-70
2023/11/14 02:22:12;;;;;;;9.00;4.07;;;16.30;68.20;;;;;;5135351;27;20517;-70
2023/11/14 02:24:40;;;;;;;11.05;3.35;;;16.30;68.20;;;;;;5117549;27;20172;-70
2023/11/14 02:27:07;;;;;;;11.48;3.00;;;16.20;68.10;;;;;;5134784;27;20256;-70
2023/11/14 02:29:33;;;;;;;14.02;3.53;;;16.20;68.00;;;;;;5117580;27;20236;-70
2023/11/14 02:31:58;;;;;;;12.65;3.58;;;16.20;68.00;;;;;;5116929;27;20214;-70
2023/11/14 02:34:24;;;;;;;8.18;3.33;;;16.20;68.00;;;;;;5134799;27;20259;-71
2023/11/14 02:36:49;;;;;;;11.45;3.67;;;16.20;68.00;;;;;;5135323;27;20208;-70
2023/11/14 02:39:15;;;;;;;10.50;3.10;;;16.20;67.90;;;;;;5135247;27;20202;-72
2023/11/14 02:41:41;;;;;;;12.20;3.60;;;16.20;68.00;;;;;;5134861;27;20200;-70
2023/11/14 02:44:06;;;;;;;10.18;3.42;;;16.20;68.00;;;;;;5135034;27;20609;-68
2023/11/14 02:46:32;;;;;;;13.63;3.50;;;16.20;68.10;;;;;;5135499;27;20662;-68
2023/11/14 02:49:03;;;;;;;8.98;3.33;;;16.30;68.10;;;;;;5134188;27;20665;-69
2023/11/14 02:51:28;;;;;;;10.68;3.38;;;16.20;67.90;;;;;;5135182;27;20210;-69
2023/11/14 02:53:54;;;;;;;8.77;3.30;;;16.20;68.00;;;;;;5135332;27;20176;-69
2023/11/14 02:56:20;;;;;;;11.70;3.55;;;16.20;68.00;;;;;;5133899;27;20208;-70
2023/11/14 02:58:45;;;;;;;9.88;3.63;;;16.20;68.00;;;;;;5135120;27;20211;-69
2023/11/14 03:01:11;;;;;;;10.70;3.50;;;16.20;68.00;;;;;;5134585;27;20233;-69
2023/11/14 03:03:37;;;;;;;11.52;3.30;;;16.20;68.00;;;;;;5134180;27;20695;-70
2023/11/14 03:06:04;;;;;;;12.13;4.43;;;16.20;68.00;;;;;;5134517;27;20187;-70
2023/11/14 03:08:30;;;;;;;12.77;4.40;;;16.20;68.00;;;;;;5134134;27;20208;-70
2023/11/14 03:10:56;;;;;;;10.75;3.30;;;16.20;68.00;;;;;;5134715;27;20187;-71
2023/11/14 03:13:21;;;;;;;7.65;3.33;;;16.20;68.00;;;;;;5134393;27;20180;-69
2023/11/14 03:15:47;;;;;;;10.43;3.60;;;16.20;68.10;;;;;;5133777;27;20168;-69
2023/11/14 03:18:12;;;;;;;11.43;3.65;;;16.20;68.00;;;;;;5133288;27;20169;-68
2023/11/14 03:20:38;;;;;;;9.43;3.58;;;16.20;68.00;;;;;;5134459;27;20173;-68
2023/11/14 03:23:03;;;;;;;6.47;2.90;;;16.20;68.10;;;;;;5133436;27;20581;-69
2023/11/14 03:25:29;;;;;;;11.02;3.60;;;16.20;68.10;;;;;;5134433;27;20176;-68
2023/11/14 03:27:55;;;;;;;10.43;3.58;;;16.10;68.00;;;;;;5134534;27;20169;-70
2023/11/14 03:30:22;;;;;;;10.38;3.67;;;16.10;68.00;;;;;;5114871;27;20230;-69
2023/11/14 03:32:47;;;;;;;12.48;3.88;;;16.20;68.10;;;;;;5134338;27;20176;-70
2023/11/14 03:35:13;;;;;;;10.68;3.70;;;16.20;68.20;;;;;;5133861;27;20267;-70
2023/11/14 03:37:38;;;;;;;11.23;3.58;;;16.20;68.20;;;;;;5132850;27;20177;-70
2023/11/14 03:40:05;;;;;;;11.35;3.47;;;16.20;68.10;;;;;;5133982;27;20195;-71
2023/11/14 03:42:31;;;;;;;9.13;3.17;;;16.10;68.10;;;;;;5134280;27;20183;-69
2023/11/14 03:44:57;;;;;;;10.45;4.43;;;16.10;68.10;;;;;;5133432;27;20179;-70
2023/11/14 03:47:22;;;;;;;10.15;3.55;;;16.10;68.20;;;;;;5133959;27;20188;-69
2023/11/14 03:49:48;;;;;;;9.00;3.60;;;16.10;68.20;;;;;;5133688;27;20227;-69
2023/11/14 03:52:16;;;;;;;11.68;3.67;;;16.10;68.20;;;;;;5133117;27;20169;-70
2023/11/14 03:54:42;;;;;;;9.80;3.65;;;16.10;68.20;;;;;;5134008;27;20206;-69
2023/11/14 03:57:07;;;;;;;9.90;3.50;;;16.10;68.20;;;;;;5133435;27;20189;-70
2023/11/14 03:59:33;;;;;;;9.65;3.28;;;16.10;68.20;;;;;;5133066;27;20183;-71
2023/11/14 04:01:58;;;;;;;13.25;4.22;;;16.10;68.30;;;;;;5133463;27;20179;-70
2023/11/14 04:04:24;;;;;;;8.88;3.42;;;16.10;68.30;;;;;;5133620;27;20270;-70
2023/11/14 04:06:49;;;;;;;10.10;3.60;;;16.10;68.40;;;;;;5133094;27;20263;-70
2023/11/14 04:09:15;;;;;;;12.93;4.25;;;16.10;68.70;;;;;;5133186;27;20214;-71
2023/11/14 04:11:45;;;;;;;5.75;2.50;;;16.10;68.50;;;;;;5133009;27;20179;-70
2023/11/14 04:14:11;;;;;;;10.98;3.90;;;16.10;68.50;;;;;;5133122;27;20646;-72
2023/11/14 04:16:36;;;;;;;9.43;3.35;;;16.10;68.50;;;;;;5133496;27;20177;-69
2023/11/14 04:19:02;;;;;;;8.68;3.67;;;16.10;68.50;;;;;;5132210;27;20182;-68
2023/11/14 04:21:27;;;;;;;9.32;3.10;;;16.10;68.50;;;;;;5133634;27;20267;-70
2023/11/14 04:23:53;;;;;;;9.65;3.45;;;16.10;68.60;;;;;;5133584;27;20218;-70
2023/11/14 04:26:19;;;;;;;8.32;3.30;;;16.10;68.60;;;;;;5132554;27;20583;-69
2023/11/14 04:28:44;;;;;;;9.23;3.47;;;16.10;68.70;;;;;;5133005;27;20204;-69
2023/11/14 04:31:10;;;;;;;10.50;3.60;;;16.00;68.60;;;;;;5132963;27;20631;-68
2023/11/14 04:33:35;;;;;;;11.13;3.85;;;16.00;68.60;;;;;;5114146;27;20168;-69
2023/11/14 04:36:01;;;;;;;8.25;2.95;;;16.10;68.80;;;;;;5133180;27;20165;-70
2023/11/14 04:38:26;;;;;;;9.82;3.25;;;16.00;68.70;;;;;;5133389;27;20168;-69
2023/11/14 04:40:52;;;;;;;10.50;4.03;;;16.00;68.70;;;;;;5132607;27;20221;-69
2023/11/14 04:43:17;;;;;;;11.82;3.70;;;16.10;68.80;;;;;;5132926;27;20221;-68
2023/11/14 04:45:43;;;;;;;10.18;3.72;;;16.00;68.70;;;;;;5133043;27;20171;-68
2023/11/14 04:48:11;;;;;;;11.27;3.40;;;16.00;68.70;;;;;;5131791;27;20615;-68
2023/11/14 04:50:40;;;;;;;9.27;3.38;;;16.10;68.80;;;;;;5133015;28;20283;-68
2023/11/14 04:53:06;;;;;;;7.05;2.72;;;16.00;68.70;;;;;;5132615;28;20965;-70
2023/11/14 04:55:32;;;;;;;8.57;2.92;;;16.00;68.70;;;;;;5132427;28;20263;-70
2023/11/14 04:57:57;;;;;;;7.68;3.03;;;16.00;68.70;;;;;;5132920;28;20578;-69
2023/11/14 05:00:23;;;;;;;10.43;3.30;;;16.00;68.80;;;;;;5132939;28;20627;-70
2023/11/14 05:02:48;;;;;;;9.20;3.15;;;16.00;68.80;;;;;;5132111;28;20168;-69
2023/11/14 05:05:14;;;;;;;10.65;3.47;;;16.00;68.80;;;;;;5132834;28;20168;-71
2023/11/14 05:07:40;;;;;;;9.43;3.50;;;16.00;68.80;;;;;;5133100;28;20638;-72
2023/11/14 05:10:06;;;;;;;9.63;3.03;;;16.00;68.80;;;;;;5131883;28;20211;-73
2023/11/14 05:12:32;;;;;;;8.20;3.08;;;16.00;68.80;;;;;;5132866;28;20160;-71
2023/11/14 05:14:57;;;;;;;7.53;3.13;;;16.00;68.90;;;;;;5132029;28;20233;-71
2023/11/14 05:17:23;;;;;;;10.88;3.28;;;16.00;68.90;;;;;;5132590;28;20183;-71
2023/11/14 05:19:50;;;;;;;10.98;3.33;;;16.00;68.90;;;;;;5132964;28;20196;-70
2023/11/14 05:22:16;;;;;;;11.52;3.60;;;16.00;68.90;;;;;;5131954;28;20287;-70
2023/11/14 05:24:41;;;;;;;6.60;2.97;;;16.00;68.90;;;;;;5132779;28;20247;-70
2023/11/14 05:27:07;;;;;;;10.20;3.13;;;16.00;68.90;;;;;;5132423;28;20255;-71
2023/11/14 05:29:32;;;;;;;9.63;3.10;;;16.00;68.90;;;;;;5132075;28;20204;-71
2023/11/14 05:31:58;;;;;;;8.00;3.00;;;16.00;68.90;;;;;;5132348;28;20623;-70
2023/11/14 05:34:23;;;;;;;12.25;4.15;;;16.00;69.00;;;;;;5132903;28;20182;-71
2023/11/14 05:36:49;;;;;;;11.52;3.45;;;16.00;68.90;;;;;;5132102;28;20258;-70
2023/11/14 05:39:14;;;;;;;10.40;3.22;;;16.00;68.90;;;;;;5132224;27;20657;-71
2023/11/14 05:41:41;;;;;;;6.55;3.00;;;16.00;69.00;;;;;;5135974;27;20210;-71
2023/11/14 05:44:07;;;;;;;9.18;3.42;;;16.00;69.10;;;;;;5135330;27;20188;-70
2023/11/14 05:46:32;;;;;;;8.38;3.33;;;16.00;69.00;;;;;;5136327;27;20187;-69
2023/11/14 05:48:58;;;;;;;11.43;4.13;;;15.90;69.00;;;;;;5135914;27;20300;-71
2023/11/14 05:51:23;;;;;;;10.50;3.10;;;16.00;69.00;;;;;;5135862;27;20580;-71
2023/11/14 05:53:49;;;;;;;10.55;3.78;;;15.90;69.00;;;;;;5136496;27;20634;-71
2023/11/14 05:56:14;;;;;;;14.77;3.80;;;15.90;69.00;;;;;;5136055;27;20619;-70
2023/11/14 05:58:40;;;;;;;8.20;2.92;;;16.00;69.10;;;;;;5135543;27;20191;-71
2023/11/14 06:01:06;;;;;;;8.38;3.50;;;15.90;69.00;;;;;;5135767;27;20178;-70
2023/11/14 06:03:32;;;;;;;9.50;2.97;;;16.00;69.10;;;;;;5135807;27;20633;-70
2023/11/14 06:05:57;;;;;;;10.77;3.65;;;15.90;69.10;;;;;;5135173;27;20259;-72
2023/11/14 06:08:23;;;;;;;9.10;3.00;;;15.90;69.10;;;;;;5135772;27;20291;-70
2023/11/14 06:10:48;;;;;;;9.50;3.22;;;16.00;69.20;;;;;;5135970;27;20172;-72
2023/11/14 06:13:14;;;;;;;9.75;3.00;;;15.90;69.10;;;;;;5134867;27;20263;-70
2023/11/14 06:15:40;;;;;;;6.97;2.72;;;15.90;69.20;;;;;;5135629;27;20180;-69
2023/11/14 06:18:05;;;;;;;12.02;4.00;;;15.90;69.30;;;;;;5135378;27;20172;-70
2023/11/14 06:20:32;;;;;;;12.57;3.88;;;15.90;69.20;;;;;;5135062;27;20702;-70
2023/11/14 06:22:58;;;;;;;12.05;3.60;;;15.90;69.20;;;;;;5135525;27;20172;-70
2023/11/14 06:25:23;;;;;;;9.10;2.92;;;15.90;69.30;;;;;;5134985;27;20169;-70
2023/11/14 06:27:52;;;;;;;10.30;3.63;;;15.90;69.30;;;;;;5135670;27;20236;-69
2023/11/14 06:30:18;;;;;;;11.27;3.58;;;15.90;69.30;;;;;;5135059;27;20227;-70
2023/11/14 06:32:43;;;;;;;7.22;2.60;;;15.90;69.30;;;;;;5135060;27;20635;-69
2023/11/14 06:35:09;;;;;;;10.25;3.08;;;15.90;69.30;;;;;;5135220;27;20604;-70
2023/11/14 06:37:35;;;;;;;8.82;3.42;;;15.90;69.30;;;;;;5135536;27;20173;-70
2023/11/14 06:40:01;;;;;;;7.47;2.88;;;15.90;69.30;;;;;;5134185;27;20232;-69
2023/11/14 06:42:26;;;;;;;9.35;3.47;;;15.90;69.30;;;;;;5135322;27;20184;-68
2023/11/14 06:44:52;;;;;;;8.70;3.20;;;15.90;69.30;;;;;;5135181;27;20168;-69
2023/11/14 06:47:17;;;;;;;14.80;3.85;;;15.90;69.30;;;;;;5134242;27;20649;-68
2023/11/14 06:49:43;;;;;;;8.13;3.35;;;15.90;70.10;;;;;;5134969;27;20235;-71
2023/11/14 06:52:10;;;;;;;9.25;3.67;;;15.90;69.30;;;;;;5134678;27;20268;-69
2023/11/14 06:54:36;;;;;;;9.45;2.83;;;15.90;69.30;;;;;;5134402;27;20169;-70
2023/11/14 06:57:02;;;;;;;8.57;2.95;;;15.90;69.30;;;;;;5134727;27;20165;-72
2023/11/14 06:59:30;;;;;;;8.23;2.80;;;15.90;69.30;;;;;;5134901;27;20176;-71
2023/11/14 07:01:55;;;;;;;10.27;3.55;;;15.90;69.30;;;;;;5134308;27;20194;-70
2023/11/14 07:04:21;;;;;;;10.93;3.55;;;15.90;69.30;;;;;;5134554;27;20650;-70
2023/11/14 07:06:46;;;;;;;11.77;3.28;;;15.90;69.30;;;;;;5134780;27;20176;-72
2023/11/14 07:09:15;;;;;;;12.20;3.78;;;15.90;69.30;;;;;;5133582;27;20203;-71
2023/11/14 07:11:41;;;;;;;12.90;3.65;;;15.90;69.20;;;;;;5134712;27;20172;-70
2023/11/14 07:14:06;;;;;;;7.40;3.30;;;15.90;69.00;;;;;;5134286;27;20188;-70
2023/11/14 07:16:32;;;;;;;10.10;3.40;;;16.00;69.10;;;;;;5134113;27;20274;-70
2023/11/14 07:18:58;;;;;;;8.77;3.13;;;16.00;69.10;;;;;;5134483;27;20295;-69
2023/11/14 07:21:23;;;;;;;8.48;3.08;;;16.10;69.00;;;;;;5134591;27;20175;-69
2023/11/14 07:23:49;;;;;;;4.97;2.20;;;16.20;69.00;;;;;;5133811;27;20168;-70
2023/11/14 07:26:17;;;;;;;9.90;3.25;;;16.30;68.90;;;;;;5134060;27;20682;-70
2023/11/14 07:28:43;;;;;;;9.23;2.70;;;16.40;68.80;;;;;;5133466;27;20208;-69
2023/11/14 07:31:09;;;;;;;10.05;3.47;;;16.50;68.70;;;;;;5134270;27;20639;-70
2023/11/14 07:33:34;;;;;;;6.47;2.78;;;16.60;68.50;;;;;;5134358;27;20180;-69
2023/11/14 07:36:00;;;;;;;7.05;2.95;;;16.60;68.30;;;;;;5133194;27;20539;-71
2023/11/14 07:38:26;;;;;;;7.50;2.72;;;16.70;68.20;;;;;;5134150;27;20663;-69
2023/11/14 07:40:52;;;;;;;7.25;2.60;;;16.80;68.00;;;;;;5134056;27;20164;-71
2023/11/14 07:43:23;;;;;;;6.00;2.55;;;16.80;67.90;;;;;;5132971;27;20304;-68
2023/11/14 07:45:49;;;;;;;8.07;2.92;;;16.90;67.80;;;;;;5134198;27;20175;-69
2023/11/14 07:48:15;;;;;;;7.53;2.55;;;16.90;67.70;;;;;;5133202;27;20224;-70
2023/11/14 07:50:41;;;;;;;5.22;2.53;;;16.90;67.70;;;;;;5117509;27;20203;-70
2023/11/14 07:53:06;;;;;;;10.07;3.47;;;16.90;67.70;;;;;;5113285;28;20177;-71
2023/11/14 07:55:32;;;;;;;7.47;3.35;;;16.90;67.70;;;;;;5113293;28;20242;-72
2023/11/14 07:57:57;;;;;;;9.13;3.00;;;17.00;67.70;;;;;;5112495;28;20176;-73
2023/11/14 08:00:24;;;;;;;9.10;3.20;;;17.00;67.60;;;;;;5113299;28;20176;-71
2023/11/14 08:02:49;;;;;;;7.28;2.85;;;17.10;67.40;;;;;;5112651;28;20643;-71
2023/11/14 08:05:18;;;;;;;7.82;3.13;;;17.20;67.20;;;;;;5112138;28;20209;-72
2023/11/14 08:07:43;;;;;;;7.28;2.72;;;17.30;67.10;;;;;;5095466;28;20206;-76
2023/11/14 08:10:09;;;;;;;8.20;2.40;;;17.30;67.30;;;;;;5112566;28;20585;-72
2023/11/14 08:12:36;;;;;;;9.65;2.42;;;17.40;67.10;;;;;;5112359;28;20252;-68
2023/11/14 08:15:01;;;;;;;7.63;2.88;;;17.30;67.30;;;;;;5112719;28;20249;-71
2023/11/14 08:17:27;;;;;;;9.00;2.63;;;17.30;67.30;;;;;;5112867;28;20173;-70
2023/11/14 08:19:52;;;;;;;10.55;2.80;;;17.20;67.30;;;;;;5112187;28;20269;-70
2023/11/14 08:22:18;;;;;;;8.43;2.70;;;17.20;67.70;;;;;;5112736;28;20289;-70
2023/11/14 08:24:43;;;;;;;5.13;2.60;;;17.10;67.80;;;;;;5112776;28;20177;-70
2023/11/14 08:27:09;;;;;;;10.07;2.78;;;17.10;67.90;;;;;;5112004;28;20576;-71
2023/11/14 08:29:35;;;;;;;7.85;2.55;;;17.00;68.00;;;;;;5112816;28;20205;-70
2023/11/14 08:32:01;;;;;;;6.57;2.63;;;16.90;68.00;;;;;;5111730;28;20172;-70
2023/11/14 08:34:26;;;;;;;8.00;2.45;;;16.90;68.30;;;;;;5112785;28;20172;-71
2023/11/14 08:36:52;;;;;;;8.35;2.65;;;16.90;68.40;;;;;;5112038;28;20268;-70
2023/11/14 08:39:17;;;;;;;8.55;3.40;;;16.80;68.50;;;;;;5111513;28;20306;-72
2023/11/14 08:41:43;;;;;;;9.05;2.85;;;16.80;68.70;;;;;;5112773;28;20252;-70
2023/11/14 08:44:08;;;;;;;8.10;2.40;;;16.70;68.60;;;;;;5111704;28;20173;-69
2023/11/14 08:46:34;;;;;;;8.20;2.80;;;16.70;68.70;;;;;;5111969;28;20180;-69
2023/11/14 08:49:00;;;;;;;7.68;3.05;;;16.70;68.80;;;;;;5112064;28;20236;-70
2023/11/14 08:51:26;;;;;;;8.02;2.88;;;16.70;68.90;;;;;;5112524;28;20623;-69
2023/11/14 08:53:52;;;;;;;9.38;3.45;;;16.60;68.80;;;;;;5111865;28;20633;-70
2023/11/14 08:56:17;;;;;;;11.57;3.45;;;16.60;68.80;;;;;;5112131;28;20177;-70
2023/11/14 08:58:43;;;;;;;10.52;2.88;;;16.60;69.10;;;;;;5112624;28;20215;-70
2023/11/14 09:01:11;;;;;;;9.90;2.97;;;16.60;69.10;;;;;;5111718;28;20173;-71
2023/11/14 09:03:37;;;;;;;9.13;2.80;;;16.70;69.10;;;;;;5112596;28;20525;-70
2023/11/14 09:06:03;;;;;;;8.25;2.88;;;16.70;69.10;;;;;;5112207;28;20228;-72
2023/11/14 09:08:28;;;;;;;6.90;2.85;;;16.70;69.10;;;;;;5111534;28;20569;-70
2023/11/14 09:10:54;;;;;;;9.63;3.45;;;16.70;69.10;;;;;;5112590;28;20201;-72
2023/11/14 09:13:19;;;;;;;8.02;2.92;;;16.70;69.10;;;;;;5112186;28;20169;-70
2023/11/14 09:15:45;;;;;;;8.50;2.92;;;16.70;69.10;;;;;;5113617;28;20246;-70
2023/11/14 09:18:11;;;;;;;9.57;3.13;;;16.70;69.30;;;;;;5116128;28;20175;-70
2023/11/14 09:20:36;;;;;;;6.45;2.80;;;16.60;69.10;;;;;;5116433;28;20276;-70
2023/11/14 09:23:02;;;;;;;10.02;3.28;;;16.60;69.20;;;;;;5115258;28;20636;-70
2023/11/14 09:25:27;;;;;;;11.00;3.13;;;16.60;69.20;;;;;;5116475;28;20177;-70
2023/11/14 09:27:53;;;;;;;6.45;2.72;;;16.60;69.30;;;;;;5116409;28;20169;-69
2023/11/14 09:30:19;;;;;;;9.35;3.00;;;16.60;69.40;;;;;;5115228;28;20213;-70
2023/11/14 09:32:46;;;;;;;9.13;2.90;;;16.50;69.40;;;;;;5116111;27;20890;-70
2023/11/14 09:35:11;;;;;;;8.90;2.97;;;16.50;69.50;;;;;;5134572;27;20192;-71
2023/11/14 09:37:37;;;;;;;7.30;2.50;;;16.60;69.50;;;;;;5136461;27;20173;-69
2023/11/14 09:40:04;;;;;;;6.90;2.90;;;16.60;69.60;;;;;;5136266;27;20164;-69
2023/11/14 09:42:30;;;;;;;10.60;3.05;;;16.60;69.70;;;;;;5136051;27;20989;-68
2023/11/14 09:44:55;;;;;;;9.70;2.72;;;16.60;69.60;;;;;;5136582;27;20674;-67
2023/11/14 09:47:21;;;;;;;12.20;3.45;;;16.60;69.70;;;;;;5116888;27;20179;-67
2023/11/14 09:49:47;;;;;;;8.55;3.15;;;16.60;69.60;;;;;;5116292;27;20251;-68
2023/11/14 09:52:12;;;;;;;8.35;2.97;;;16.60;69.70;;;;;;5135912;27;20259;-68
2023/11/14 09:54:39;;;;;;;8.70;2.35;;;16.60;69.70;;;;;;5136185;27;20172;-69
2023/11/14 09:57:05;;;;;;;9.35;2.53;;;16.60;69.70;;;;;;5135085;27;20176;-68
2023/11/14 09:59:32;;;;;;;5.28;2.47;;;16.60;69.70;;;;;;5117906;27;20225;-68
2023/11/14 10:01:58;;;;;;;8.52;2.85;;;16.60;69.70;;;;;;5117545;27;20207;-68
2023/11/14 10:04:23;;;;;;;7.07;2.95;;;16.70;69.80;;;;;;5135209;27;20260;-68
2023/11/14 10:06:49;;;;;;;7.72;3.13;;;16.60;69.80;;;;;;5135948;27;20247;-69
2023/11/14 10:09:15;;;;;;;7.38;2.70;;;16.60;69.70;;;;;;5135233;27;20227;-70
2023/11/14 10:11:46;;;;;;;8.88;3.33;;;16.60;69.80;;;;;;5115926;27;20172;-68
2023/11/14 10:14:11;;;;;;;10.20;3.30;;;16.50;69.90;;;;;;5135569;27;20180;-68
2023/11/14 10:16:37;;;;;;;8.98;3.30;;;16.50;69.80;;;;;;5135757;27;20545;-68
2023/11/14 10:19:13;;;;;;;8.57;2.90;;;16.50;70.00;;;;;;5134693;27;20188;-66
2023/11/14 10:21:39;;;;;;;9.20;3.03;;;16.60;70.20;;;;;;5135888;27;20180;-67
2023/11/14 10:24:11;;;;;;;6.07;2.97;;;16.60;70.00;;;;;;5135343;27;20179;-67
2023/11/14 10:26:40;;;;;;;6.75;2.53;;;16.60;70.10;;;;;;5134352;27;20200;-69
2023/11/14 10:29:06;;;;;;;7.47;2.75;;;16.60;70.00;;;;;;5099280;27;20279;-69
2023/11/14 10:31:36;;;;;;;8.50;3.17;;;16.50;70.00;;;;;;5134036;27;20587;-67
2023/11/14 10:34:02;;;;;;;7.45;2.47;;;16.50;70.10;;;;;;5134130;27;20659;-68
2023/11/14 10:36:28;;;;;;;6.40;2.75;;;16.50;70.20;;;;;;5134672;27;20200;-68
2023/11/14 10:39:03;;;;;;;7.25;2.72;;;16.50;70.30;;;;;;5134718;27;20204;-68
2023/11/14 10:41:30;;;;;;;8.57;2.80;;;16.50;70.30;;;;;;5135316;27;20641;-69
2023/11/14 10:43:55;;;;;;;7.07;3.15;;;16.50;70.50;;;;;;5109862;27;20199;-68
2023/11/14 10:46:21;;;;;;;7.45;3.05;;;16.50;70.50;;;;;;5099428;28;20627;-67
2023/11/14 10:48:46;;;;;;;7.15;2.60;;;16.50;70.40;;;;;;5114926;27;20224;-68
2023/11/14 10:51:12;;;;;;;6.95;2.53;;;16.60;70.40;;;;;;5131785;27;20527;-68
2023/11/14 10:53:39;;;;;;;7.88;2.92;;;16.50;70.50;;;;;;5113920;28;20177;-69
2023/11/14 10:56:07;;;;;;;10.80;3.00;;;16.50;70.60;;;;;;5106456;27;20181;-69
2023/11/14 10:58:35;;;;;;;6.03;2.75;;;16.50;70.60;;;;;;5135055;27;20176;-69
2023/11/14 11:01:02;;;;;;;8.20;2.80;;;16.40;70.60;;;;;;5095022;28;20181;-69
2023/11/14 11:03:28;;;;;;;6.75;2.40;;;16.50;70.70;;;;;;5096634;28;20169;-69
2023/11/14 11:05:54;;;;;;;10.32;3.53;;;16.50;70.60;;;;;;5096214;28;20542;-69
2023/11/14 11:08:20;;;;;;;9.73;3.50;;;16.50;70.50;;;;;;5113355;28;20531;-70
2023/11/14 11:10:45;;;;;;;5.07;2.22;;;16.50;70.60;;;;;;5114283;28;20256;-69
2023/11/14 11:13:16;;;;;;;9.00;2.80;;;16.50;70.60;;;;;;5095760;28;20748;-69
2023/11/14 11:15:49;;;;;;;6.50;2.38;;;16.50;70.70;;;;;;5095382;28;20213;-69
2023/11/14 11:18:14;;;;;;;8.32;2.90;;;16.50;70.70;;;;;;5129237;27;20172;-68
2023/11/14 11:20:41;;;;;;;6.82;2.88;;;16.50;70.40;;;;;;5134093;27;20530;-68
2023/11/14 11:23:12;;;;;;;9.57;3.15;;;16.50;70.60;;;;;;5133247;27;20187;-68
2023/11/14 11:25:38;;;;;;;6.68;3.05;;;16.50;70.70;;;;;;5134797;27;20192;-68
2023/11/14 11:28:27;;;;;;;5.68;2.58;;;16.40;70.50;;;;;;5133386;27;20180;-68
2023/11/14 11:31:08;;;;;;;6.28;2.60;;;16.40;70.60;;;;;;5123600;27;20204;-65
2023/11/14 11:33:35;;;;;;;9.40;2.80;;;16.50;70.50;;;;;;5134284;27;20187;-69
2023/11/14 11:36:27;;;;;;;8.40;3.05;;;16.50;70.30;;;;;;5133342;27;20180;-69
2023/11/14 11:38:57;;;;;;;6.88;2.67;;;16.40;69.90;;;;;;5129322;27;20181;-68
2023/11/14 11:41:23;;;;;;;6.65;3.17;;;16.50;70.00;;;;;;5134150;27;20173;-67
2023/11/14 11:44:05;;;;;;;10.55;3.20;;;16.50;70.00;;;;;;5115086;27;20676;-70
2023/11/14 11:46:34;;;;;;;13.32;3.60;;;16.50;69.70;;;;;;5134062;27;20180;-68
2023/11/14 11:49:24;;;;;;;8.45;2.80;;;16.50;70.00;;;;;;5132609;27;20220;-68
2023/11/14 11:51:51;;;;;;;8.32;3.03;;;16.50;70.00;;;;;;5123050;27;20631;-69
2023/11/14 11:54:28;;;;;;;8.88;3.42;;;16.50;70.10;;;;;;5094937;28;20189;-69
2023/11/14 11:57:19;;;;;;;6.57;2.90;;;16.50;70.30;;;;;;5112458;28;20784;-69
2023/11/14 11:59:47;;;;;;;7.10;2.15;;;16.50;70.50;;;;;;5113509;28;20169;-72
2023/11/14 12:02:23;;;;;;;6.88;2.50;;;16.50;70.30;;;;;;5113017;28;20173;-70
2023/11/14 12:04:56;;;;;;;9.10;2.88;;;16.50;70.60;;;;;;5112523;28;20173;-71
2023/11/14 12:07:22;;;;;;;7.00;2.67;;;16.50;70.30;;;;;;5095765;28;20181;-65
2023/11/14 12:09:51;;;;;;;8.02;2.45;;;16.50;70.30;;;;;;5112930;28;20245;-66
2023/11/14 12:12:16;;;;;;;10.73;3.47;;;16.50;70.00;;;;;;5112777;28;20177;-69
2023/11/14 12:14:42;;;;;;;10.77;2.75;;;16.50;69.90;;;;;;5113628;28;20192;-71
2023/11/14 12:17:08;;;;;;;7.78;3.08;;;16.40;70.00;;;;;;5115702;28;20196;-71
2023/11/14 12:19:34;;;;;;;7.88;3.55;;;16.50;70.20;;;;;;5112838;28;20176;-69
2023/11/14 12:21:59;;;;;;;10.45;3.05;;;16.40;70.20;;;;;;5112476;28;20244;-73
2023/11/14 12:24:25;;;;;;;11.20;3.65;;;16.40;70.50;;;;;;5093898;28;20643;-71
2023/11/14 12:26:50;;;;;;;9.85;3.05;;;16.40;70.50;;;;;;5112806;28;20169;-72
2023/11/14 12:29:16;;;;;;;8.60;3.40;;;16.40;70.50;;;;;;5111892;28;20742;-71
2023/11/14 12:31:51;;;;;;;8.85;3.15;;;16.40;70.50;;;;;;5111206;28;20594;-71
2023/11/14 12:34:23;;;;;;;7.82;3.20;;;16.40;70.40;;;;;;5112311;28;20182;-71
2023/11/14 12:36:49;;;;;;;12.18;3.40;;;16.40;70.40;;;;;;5112554;28;20177;-74
2023/11/14 12:39:15;;;;;;;9.77;2.85;;;16.40;70.40;;;;;;5111982;28;20176;-74